TimeEDT,TemperatureF,Dew PointF,Humidity,Sea Level PressureIn,VisibilityMPH,Wind Direction,Wind SpeedMPH,Gust SpeedMPH,PrecipitationIn,Events,Conditions,WindDirDegrees,DateUTC
12:55 AM,50.0,46.9,89,29.99,4.0,Calm,Calm,-,N/A,,Clear,0,2012-10-03 04:55:00
1:55 AM,48.0,46.0,93,29.99,5.0,Calm,Calm,-,N/A,,Clear,0,2012-10-03 05:55:00
2:34 AM,46.9,44.1,90,30.00,1.8,Calm,Calm,-,N/A,,Clear,0,2012-10-03 06:34:00
2:42 AM,46.9,44.1,90,30.00,3.0,Calm,Calm,-,N/A,,Clear,0,2012-10-03 06:42:00
2:55 AM,46.9,44.1,90,30.00,4.0,NE,3.5,-,N/A,,Clear,50,2012-10-03 06:55:00
3:55 AM,46.9,45.0,93,29.99,5.0,ENE,3.5,-,N/A,,Clear,70,2012-10-03 07:55:00
4:55 AM,46.9,44.1,90,30.00,3.0,Calm,Calm,-,N/A,,Clear,0,2012-10-03 08:55:00
5:55 AM,46.0,43.0,89,30.01,2.0,Calm,Calm,-,N/A,,Clear,0,2012-10-03 09:55:00
6:35 AM,46.0,43.0,89,30.01,1.5,East,3.5,-,N/A,,Clear,80,2012-10-03 10:35:00
6:45 AM,45.0,43.0,93,30.01,3.0,ENE,3.5,-,N/A,,Clear,70,2012-10-03 10:45:00
6:54 AM,45.0,43.0,93,30.02,2.0,ENE,3.5,-,N/A,,Partly Cloudy,70,2012-10-03 10:54:00
7:02 AM,45.0,43.0,93,30.02,1.5,NE,3.5,-,N/A,,Scattered Clouds,50,2012-10-03 11:02:00
7:19 AM,45.0,43.0,93,30.02,2.5,NE,3.5,-,N/A,,Partly Cloudy,50,2012-10-03 11:19:00
7:26 AM,45.0,43.0,93,30.02,3.0,NE,3.5,-,N/A,,Clear,50,2012-10-03 11:26:00
7:55 AM,45.0,43.0,93,30.03,4.0,East,3.5,-,N/A,,Clear,80,2012-10-03 11:55:00
8:55 AM,48.0,45.0,89,30.04,8.0,East,3.5,-,N/A,,Clear,80,2012-10-03 12:55:00
9:55 AM,52.0,48.0,86,30.03,10.0,East,3.5,-,N/A,,Clear,100,2012-10-03 13:55:00
10:55 AM,55.9,48.9,77,30.03,10.0,ESE,5.8,-,N/A,,Clear,110,2012-10-03 14:55:00
11:55 AM,61.0,46.9,60,30.02,10.0,Variable,3.5,-,N/A,,Clear,0,2012-10-03 15:55:00
12:55 PM,64.9,46.9,52,30.01,10.0,SE,6.9,-,N/A,,Clear,130,2012-10-03 16:55:00
1:55 PM,66.0,46.0,48,29.99,10.0,Variable,4.6,-,N/A,,Clear,0,2012-10-03 17:55:00
2:55 PM,68.0,43.0,40,29.99,10.0,Variable,5.8,-,N/A,,Clear,0,2012-10-03 18:55:00
3:55 PM,69.1,46.9,45,29.98,10.0,Variable,3.5,-,N/A,,Clear,0,2012-10-03 19:55:00
4:55 PM,68.0,48.0,49,29.98,10.0,SE,6.9,-,N/A,,Clear,140,2012-10-03 20:55:00
5:55 PM,66.9,48.9,52,29.99,10.0,SSE,8.1,-,N/A,,Scattered Clouds,160,2012-10-03 21:55:00
6:55 PM,64.0,50.0,60,29.99,10.0,SE,8.1,-,N/A,,Overcast,130,2012-10-03 22:55:00
7:55 PM,62.1,51.1,67,30.00,10.0,ESE,4.6,-,N/A,,Overcast,120,2012-10-03 23:55:00
8:55 PM,60.1,50.0,69,30.00,10.0,ESE,3.5,-,N/A,,Mostly Cloudy,120,2012-10-04 00:55:00
9:55 PM,59.0,50.0,72,30.00,10.0,Calm,Calm,-,N/A,,Mostly Cloudy,0,2012-10-04 01:55:00
10:55 PM,57.9,50.0,75,30.00,10.0,Calm,Calm,-,N/A,,Overcast,0,2012-10-04 02:55:00
11:55 PM,57.0,52.0,83,30.01,9.0,Calm,Calm,-,0.01,Rain,Light Rain,0,2012-10-04 03:55:00